sensor_id;sensor_type;location;lat;lon;timestamp;P1;durP1;ratioP1;P2;durP2;ratioP2
7843;SDS011;3967;48.702;9.326;2022-09-09T00:02:01;4.47;;;0.93;;
7843;SDS011;3967;48.702;9.326;2022-09-09T00:04:31;1.80;;;0.93;;
7843;SDS011;3967;48.702;9.326;2022-09-09T00:07:20;1.63;;;1.00;;
7843;SDS011;3967;48.702;9.326;2022-09-09T00:13:42;1.07;;;0.97;;
7843;SDS011;3967;48.702;9.326;2022-09-09T00:15:41;2.40;;;0.90;;
7843;SDS011;3967;48.702;9.326;2022-09-09T00:20:52;1.03;;;0.83;;
7843;SDS011;3967;48.702;9.326;2022-09-09T00:23:25;3.77;;;0.97;;
7843;SDS011;3967;48.702;9.326;2022-09-09T00:28:25;2.07;;;0.80;;
7843;SDS011;3967;48.702;9.326;2022-09-09T00:30:53;2.57;;;1.20;;
7843;SDS011;3967;48.702;9.326;2022-09-09T00:33:24;1.57;;;0.80;;
7843;SDS011;3967;48.702;9.326;2022-09-09T00:35:54;1.20;;;0.80;;
7843;SDS011;3967;48.702;9.326;2022-09-09T00:38:25;3.63;;;0.90;;
7843;SDS011;3967;48.702;9.326;2022-09-09T00:43:37;2.47;;;0.93;;
7843;SDS011;3967;48.702;9.326;2022-09-09T00:57:29;2.40;;;1.00;;
7843;SDS011;3967;48.702;9.326;2022-09-09T01:08:03;1.70;;;0.90;;
7843;SDS011;3967;48.702;9.326;2022-09-09T01:10:43;1.93;;;1.10;;
7843;SDS011;3967;48.702;9.326;2022-09-09T01:13:22;1.43;;;1.30;;
7843;SDS011;3967;48.702;9.326;2022-09-09T01:15:52;1.53;;;1.10;;
7843;SDS011;3967;48.702;9.326;2022-09-09T01:18:27;3.57;;;1.00;;
7843;SDS011;3967;48.702;9.326;2022-09-09T01:23:37;1.70;;;1.00;;
7843;SDS011;3967;48.702;9.326;2022-09-09T01:26:18;2.43;;;0.90;;
7843;SDS011;3967;48.702;9.326;2022-09-09T01:28:57;3.93;;;1.03;;
7843;SDS011;3967;48.702;9.326;2022-09-09T01:31:28;1.73;;;0.93;;
7843;SDS011;3967;48.702;9.326;2022-09-09T01:33:58;3.40;;;1.20;;
7843;SDS011;3967;48.702;9.326;2022-09-09T01:36:36;2.67;;;1.10;;
7843;SDS011;3967;48.702;9.326;2022-09-09T01:39:34;3.43;;;1.27;;
7843;SDS011;3967;48.702;9.326;2022-09-09T01:42:03;1.60;;;1.13;;
7843;SDS011;3967;48.702;9.326;2022-09-09T01:44:32;1.67;;;1.30;;
7843;SDS011;3967;48.702;9.326;2022-09-09T01:47:00;1.43;;;0.90;;
7843;SDS011;3967;48.702;9.326;2022-09-09T01:49:26;1.70;;;0.93;;
7843;SDS011;3967;48.702;9.326;2022-09-09T01:51:54;1.37;;;1.27;;
7843;SDS011;3967;48.702;9.326;2022-09-09T01:54:22;2.60;;;1.13;;
7843;SDS011;3967;48.702;9.326;2022-09-09T01:57:06;1.67;;;1.00;;
7843;SDS011;3967;48.702;9.326;2022-09-09T01:59:54;2.40;;;0.90;;
7843;SDS011;3967;48.702;9.326;2022-09-09T02:02:57;2.73;;;1.20;;
7843;SDS011;3967;48.702;9.326;2022-09-09T02:05:42;1.90;;;1.00;;
7843;SDS011;3967;48.702;9.326;2022-09-09T02:08:59;1.63;;;1.20;;
7843;SDS011;3967;48.702;9.326;2022-09-09T02:11:13;3.73;;;1.43;;
7843;SDS011;3967;48.702;9.326;2022-09-09T02:13:45;2.30;;;0.83;;
7843;SDS011;3967;48.702;9.326;2022-09-09T02:19:11;2.93;;;1.10;;
7843;SDS011;3967;48.702;9.326;2022-09-09T02:21:52;2.80;;;1.10;;
7843;SDS011;3967;48.702;9.326;2022-09-09T02:24:21;2.63;;;0.90;;
7843;SDS011;3967;48.702;9.326;2022-09-09T02:26:49;4.17;;;1.10;;
7843;SDS011;3967;48.702;9.326;2022-09-09T02:29:26;2.50;;;1.00;;
7843;SDS011;3967;48.702;9.326;2022-09-09T02:31:58;2.70;;;0.87;;
7843;SDS011;3967;48.702;9.326;2022-09-09T02:34:29;2.23;;;1.00;;
7843;SDS011;3967;48.702;9.326;2022-09-09T02:37:00;2.07;;;1.20;;
7843;SDS011;3967;48.702;9.326;2022-09-09T02:39:28;2.80;;;1.30;;
7843;SDS011;3967;48.702;9.326;2022-09-09T02:41:55;1.37;;;1.13;;
7843;SDS011;3967;48.702;9.326;2022-09-09T02:44:22;2.63;;;1.07;;
7843;SDS011;3967;48.702;9.326;2022-09-09T02:46:57;3.83;;;0.97;;
7843;SDS011;3967;48.702;9.326;2022-09-09T02:52:36;0.93;;;0.90;;
7843;SDS011;3967;48.702;9.326;2022-09-09T02:55:16;2.70;;;1.10;;
7843;SDS011;3967;48.702;9.326;2022-09-09T02:57:49;3.37;;;1.10;;
7843;SDS011;3967;48.702;9.326;2022-09-09T03:00:21;3.57;;;1.10;;
7843;SDS011;3967;48.702;9.326;2022-09-09T03:02:50;2.90;;;1.20;;
7843;SDS011;3967;48.702;9.326;2022-09-09T03:05:17;4.80;;;1.50;;
7843;SDS011;3967;48.702;9.326;2022-09-09T03:07:44;1.23;;;1.07;;
7843;SDS011;3967;48.702;9.326;2022-09-09T03:10:10;2.83;;;1.30;;
7843;SDS011;3967;48.702;9.326;2022-09-09T03:12:37;5.53;;;1.50;;
7843;SDS011;3967;48.702;9.326;2022-09-09T03:15:05;3.33;;;1.33;;
7843;SDS011;3967;48.702;9.326;2022-09-09T03:17:32;2.57;;;1.57;;
7843;SDS011;3967;48.702;9.326;2022-09-09T03:20:00;4.07;;;1.43;;
7843;SDS011;3967;48.702;9.326;2022-09-09T03:22:28;4.10;;;1.40;;
7843;SDS011;3967;48.702;9.326;2022-09-09T03:24:54;2.17;;;1.40;;
7843;SDS011;3967;48.702;9.326;2022-09-09T03:27:21;2.63;;;1.40;;
7843;SDS011;3967;48.702;9.326;2022-09-09T03:29:48;4.93;;;1.40;;
7843;SDS011;3967;48.702;9.326;2022-09-09T03:32:17;1.10;;;1.00;;
7843;SDS011;3967;48.702;9.326;2022-09-09T03:34:44;2.63;;;1.63;;
7843;SDS011;3967;48.702;9.326;2022-09-09T03:37:13;4.63;;;1.60;;
7843;SDS011;3967;48.702;9.326;2022-09-09T03:39:40;2.70;;;1.20;;
7843;SDS011;3967;48.702;9.326;2022-09-09T03:42:06;8.47;;;1.63;;
7843;SDS011;3967;48.702;9.326;2022-09-09T03:44:33;2.80;;;1.10;;
7843;SDS011;3967;48.702;9.326;2022-09-09T03:46:59;3.60;;;1.43;;
7843;SDS011;3967;48.702;9.326;2022-09-09T03:49:26;2.80;;;1.10;;
7843;SDS011;3967;48.702;9.326;2022-09-09T03:51:56;5.53;;;1.30;;
7843;SDS011;3967;48.702;9.326;2022-09-09T03:54:24;3.40;;;1.30;;
7843;SDS011;3967;48.702;9.326;2022-09-09T03:56:51;3.07;;;1.30;;
7843;SDS011;3967;48.702;9.326;2022-09-09T03:59:18;4.47;;;1.33;;
7843;SDS011;3967;48.702;9.326;2022-09-09T04:01:45;4.43;;;1.50;;
7843;SDS011;3967;48.702;9.326;2022-09-09T04:04:13;4.37;;;1.30;;
7843;SDS011;3967;48.702;9.326;2022-09-09T04:06:39;2.43;;;1.40;;
7843;SDS011;3967;48.702;9.326;2022-09-09T04:09:06;1.47;;;1.13;;
7843;SDS011;3967;48.702;9.326;2022-09-09T04:11:33;1.73;;;1.00;;
7843;SDS011;3967;48.702;9.326;2022-09-09T04:14:00;1.90;;;1.07;;
7843;SDS011;3967;48.702;9.326;2022-09-09T04:16:26;3.13;;;1.00;;
7843;SDS011;3967;48.702;9.326;2022-09-09T04:18:53;3.70;;;1.40;;
7843;SDS011;3967;48.702;9.326;2022-09-09T04:21:20;2.73;;;1.00;;
7843;SDS011;3967;48.702;9.326;2022-09-09T04:23:47;1.70;;;1.20;;
7843;SDS011;3967;48.702;9.326;2022-09-09T04:26:14;4.87;;;0.90;;
7843;SDS011;3967;48.702;9.326;2022-09-09T04:28:40;2.73;;;0.93;;
7843;SDS011;3967;48.702;9.326;2022-09-09T04:31:13;4.60;;;1.10;;
7843;SDS011;3967;48.702;9.326;2022-09-09T04:33:46;7.30;;;1.50;;
7843;SDS011;3967;48.702;9.326;2022-09-09T04:36:13;3.60;;;1.00;;
7843;SDS011;3967;48.702;9.326;2022-09-09T04:38:40;3.03;;;1.23;;
7843;SDS011;3967;48.702;9.326;2022-09-09T04:41:06;1.33;;;0.80;;
7843;SDS011;3967;48.702;9.326;2022-09-09T04:43:33;2.70;;;0.93;;
7843;SDS011;3967;48.702;9.326;2022-09-09T04:46:00;2.00;;;1.03;;
7843;SDS011;3967;48.702;9.326;2022-09-09T04:48:27;3.70;;;1.00;;
7843;SDS011;3967;48.702;9.326;2022-09-09T04:50:57;1.43;;;0.80;;
7843;SDS011;3967;48.702;9.326;2022-09-09T04:53:25;3.47;;;1.00;;
7843;SDS011;3967;48.702;9.326;2022-09-09T04:56:00;3.13;;;1.33;;
7843;SDS011;3967;48.702;9.326;2022-09-09T04:58:38;2.17;;;1.10;;
7843;SDS011;3967;48.702;9.326;2022-09-09T05:01:09;2.43;;;1.20;;
7843;SDS011;3967;48.702;9.326;2022-09-09T05:03:38;4.13;;;1.27;;
7843;SDS011;3967;48.702;9.326;2022-09-09T05:06:09;2.27;;;0.90;;
7843;SDS011;3967;48.702;9.326;2022-09-09T05:08:37;2.97;;;0.80;;
7843;SDS011;3967;48.702;9.326;2022-09-09T05:11:14;2.70;;;0.90;;
7843;SDS011;3967;48.702;9.326;2022-09-09T05:13:44;1.50;;;0.80;;
7843;SDS011;3967;48.702;9.326;2022-09-09T05:16:12;3.87;;;1.00;;
7843;SDS011;3967;48.702;9.326;2022-09-09T05:18:40;1.90;;;1.00;;
7843;SDS011;3967;48.702;9.326;2022-09-09T05:21:09;1.23;;;1.00;;
7843;SDS011;3967;48.702;9.326;2022-09-09T05:23:39;7.13;;;1.10;;
7843;SDS011;3967;48.702;9.326;2022-09-09T05:26:06;4.47;;;1.07;;
7843;SDS011;3967;48.702;9.326;2022-09-09T05:28:42;2.77;;;1.20;;
7843;SDS011;3967;48.702;9.326;2022-09-09T05:31:09;4.63;;;1.20;;
7843;SDS011;3967;48.702;9.326;2022-09-09T05:33:41;4.13;;;1.37;;
7843;SDS011;3967;48.702;9.326;2022-09-09T05:36:10;4.30;;;1.50;;
7843;SDS011;3967;48.702;9.326;2022-09-09T05:38:41;6.43;;;1.20;;
7843;SDS011;3967;48.702;9.326;2022-09-09T05:41:08;1.90;;;0.80;;
7843;SDS011;3967;48.702;9.326;2022-09-09T05:43:37;2.87;;;0.83;;
7843;SDS011;3967;48.702;9.326;2022-09-09T05:46:11;1.23;;;1.10;;
7843;SDS011;3967;48.702;9.326;2022-09-09T05:48:43;3.50;;;0.80;;
7843;SDS011;3967;48.702;9.326;2022-09-09T05:51:15;2.23;;;1.10;;
7843;SDS011;3967;48.702;9.326;2022-09-09T05:53:43;3.37;;;1.10;;
7843;SDS011;3967;48.702;9.326;2022-09-09T05:56:12;2.33;;;0.90;;
7843;SDS011;3967;48.702;9.326;2022-09-09T05:58:40;2.20;;;1.30;;
7843;SDS011;3967;48.702;9.326;2022-09-09T06:01:11;3.87;;;1.07;;
7843;SDS011;3967;48.702;9.326;2022-09-09T06:03:40;3.23;;;1.23;;
7843;SDS011;3967;48.702;9.326;2022-09-09T06:06:08;4.10;;;0.93;;
7843;SDS011;3967;48.702;9.326;2022-09-09T06:08:38;2.10;;;1.13;;
7843;SDS011;3967;48.702;9.326;2022-09-09T06:11:13;2.73;;;1.27;;
7843;SDS011;3967;48.702;9.326;2022-09-09T06:13:42;4.47;;;1.03;;
7843;SDS011;3967;48.702;9.326;2022-09-09T06:16:12;4.47;;;1.50;;
7843;SDS011;3967;48.702;9.326;2022-09-09T06:18:41;2.40;;;1.10;;
7843;SDS011;3967;48.702;9.326;2022-09-09T06:21:13;6.13;;;1.43;;
7843;SDS011;3967;48.702;9.326;2022-09-09T06:23:42;2.63;;;1.10;;
7843;SDS011;3967;48.702;9.326;2022-09-09T06:26:18;4.60;;;1.00;;
7843;SDS011;3967;48.702;9.326;2022-09-09T06:28:46;4.20;;;1.23;;
7843;SDS011;3967;48.702;9.326;2022-09-09T06:31:15;2.43;;;0.80;;
7843;SDS011;3967;48.702;9.326;2022-09-09T06:33:54;3.30;;;1.00;;
7843;SDS011;3967;48.702;9.326;2022-09-09T06:36:22;2.53;;;1.07;;
7843;SDS011;3967;48.702;9.326;2022-09-09T06:38:50;3.07;;;1.00;;
7843;SDS011;3967;48.702;9.326;2022-09-09T06:41:18;4.67;;;1.10;;
7843;SDS011;3967;48.702;9.326;2022-09-09T06:43:46;3.20;;;0.90;;
7843;SDS011;3967;48.702;9.326;2022-09-09T06:46:17;2.77;;;1.17;;
7843;SDS011;3967;48.702;9.326;2022-09-09T06:48:45;3.83;;;1.00;;
7843;SDS011;3967;48.702;9.326;2022-09-09T06:53:44;2.93;;;1.43;;
7843;SDS011;3967;48.702;9.326;2022-09-09T06:56:19;4.20;;;1.47;;
7843;SDS011;3967;48.702;9.326;2022-09-09T06:58:55;2.97;;;1.10;;
7843;SDS011;3967;48.702;9.326;2022-09-09T07:01:23;5.17;;;2.00;;
7843;SDS011;3967;48.702;9.326;2022-09-09T07:03:52;4.37;;;1.20;;
7843;SDS011;3967;48.702;9.326;2022-09-09T07:08:59;2.87;;;1.17;;
7843;SDS011;3967;48.702;9.326;2022-09-09T07:11:30;7.83;;;1.23;;
7843;SDS011;3967;48.702;9.326;2022-09-09T07:13:59;5.50;;;1.30;;
7843;SDS011;3967;48.702;9.326;2022-09-09T07:16:26;2.93;;;1.20;;
7843;SDS011;3967;48.702;9.326;2022-09-09T07:18:55;2.27;;;0.90;;
7843;SDS011;3967;48.702;9.326;2022-09-09T07:21:27;2.03;;;0.87;;
7843;SDS011;3967;48.702;9.326;2022-09-09T07:23:55;2.60;;;0.90;;
7843;SDS011;3967;48.702;9.326;2022-09-09T07:26:23;1.67;;;0.90;;
7843;SDS011;3967;48.702;9.326;2022-09-09T07:28:52;1.70;;;1.00;;
7843;SDS011;3967;48.702;9.326;2022-09-09T07:31:20;1.57;;;0.83;;
7843;SDS011;3967;48.702;9.326;2022-09-09T07:33:51;2.27;;;0.87;;
7843;SDS011;3967;48.702;9.326;2022-09-09T07:36:19;1.83;;;0.70;;
7843;SDS011;3967;48.702;9.326;2022-09-09T07:38:49;1.53;;;0.90;;
7843;SDS011;3967;48.702;9.326;2022-09-09T07:41:19;2.83;;;1.00;;
7843;SDS011;3967;48.702;9.326;2022-09-09T07:43:46;2.20;;;1.17;;
7843;SDS011;3967;48.702;9.326;2022-09-09T07:46:15;2.30;;;0.73;;
7843;SDS011;3967;48.702;9.326;2022-09-09T07:48:46;2.37;;;1.10;;
7843;SDS011;3967;48.702;9.326;2022-09-09T07:51:18;2.23;;;0.90;;
7843;SDS011;3967;48.702;9.326;2022-09-09T07:53:50;4.03;;;1.13;;
7843;SDS011;3967;48.702;9.326;2022-09-09T07:56:19;2.30;;;1.10;;
7843;SDS011;3967;48.702;9.326;2022-09-09T07:58:48;2.40;;;1.00;;
7843;SDS011;3967;48.702;9.326;2022-09-09T08:01:20;1.63;;;1.00;;
7843;SDS011;3967;48.702;9.326;2022-09-09T08:03:53;1.77;;;0.90;;
7843;SDS011;3967;48.702;9.326;2022-09-09T08:06:29;1.37;;;1.00;;
7843;SDS011;3967;48.702;9.326;2022-09-09T08:08:58;2.50;;;0.93;;
7843;SDS011;3967;48.702;9.326;2022-09-09T08:11:26;2.40;;;0.83;;
7843;SDS011;3967;48.702;9.326;2022-09-09T08:13:55;2.10;;;0.73;;
7843;SDS011;3967;48.702;9.326;2022-09-09T08:16:29;4.47;;;0.80;;
7843;SDS011;3967;48.702;9.326;2022-09-09T08:18:57;4.03;;;0.70;;
7843;SDS011;3967;48.702;9.326;2022-09-09T08:21:26;2.20;;;0.50;;
7843;SDS011;3967;48.702;9.326;2022-09-09T08:23:55;1.87;;;0.70;;
7843;SDS011;3967;48.702;9.326;2022-09-09T08:26:28;4.10;;;0.70;;
7843;SDS011;3967;48.702;9.326;2022-09-09T08:29:00;2.67;;;0.80;;
7843;SDS011;3967;48.702;9.326;2022-09-09T08:31:33;2.20;;;0.90;;
7843;SDS011;3967;48.702;9.326;2022-09-09T08:34:03;1.47;;;0.60;;
7843;SDS011;3967;48.702;9.326;2022-09-09T08:36:33;1.30;;;0.60;;
7843;SDS011;3967;48.702;9.326;2022-09-09T08:39:03;0.90;;;0.60;;
7843;SDS011;3967;48.702;9.326;2022-09-09T08:52:45;2.07;;;0.60;;
7843;SDS011;3967;48.702;9.326;2022-09-09T08:55:28;2.57;;;0.80;;
7843;SDS011;3967;48.702;9.326;2022-09-09T09:04:24;1.00;;;0.50;;
7843;SDS011;3967;48.702;9.326;2022-09-09T09:12:15;3.00;;;0.60;;
7843;SDS011;3967;48.702;9.326;2022-09-09T09:14:46;1.93;;;0.57;;
7843;SDS011;3967;48.702;9.326;2022-09-09T09:17:17;3.00;;;0.70;;
7843;SDS011;3967;48.702;9.326;2022-09-09T09:19:47;4.60;;;0.60;;
7843;SDS011;3967;48.702;9.326;2022-09-09T09:24:54;5.20;;;0.83;;
7843;SDS011;3967;48.702;9.326;2022-09-09T09:29:56;2.00;;;0.60;;
7843;SDS011;3967;48.702;9.326;2022-09-09T09:32:53;4.27;;;0.90;;
7843;SDS011;3967;48.702;9.326;2022-09-09T09:35:24;1.27;;;0.60;;
7843;SDS011;3967;48.702;9.326;2022-09-09T09:37:51;1.30;;;0.50;;
7843;SDS011;3967;48.702;9.326;2022-09-09T09:40:47;4.20;;;0.87;;
7843;SDS011;3967;48.702;9.326;2022-09-09T09:43:21;1.33;;;0.40;;
7843;SDS011;3967;48.702;9.326;2022-09-09T09:45:55;2.33;;;0.50;;
7843;SDS011;3967;48.702;9.326;2022-09-09T09:48:42;1.07;;;0.40;;
7843;SDS011;3967;48.702;9.326;2022-09-09T09:51:13;0.63;;;0.40;;
7843;SDS011;3967;48.702;9.326;2022-09-09T09:53:49;0.97;;;0.20;;
7843;SDS011;3967;48.702;9.326;2022-09-09T09:56:15;2.23;;;0.30;;
7843;SDS011;3967;48.702;9.326;2022-09-09T10:01:25;1.13;;;0.40;;
7843;SDS011;3967;48.702;9.326;2022-09-09T10:04:00;1.10;;;0.33;;
7843;SDS011;3967;48.702;9.326;2022-09-09T10:06:29;2.63;;;0.23;;
7843;SDS011;3967;48.702;9.326;2022-09-09T10:09:01;2.40;;;0.60;;
7843;SDS011;3967;48.702;9.326;2022-09-09T10:20:29;0.63;;;0.30;;
7843;SDS011;3967;48.702;9.326;2022-09-09T10:22:35;4.87;;;0.40;;
7843;SDS011;3967;48.702;9.326;2022-09-09T10:25:25;0.80;;;0.20;;
7843;SDS011;3967;48.702;9.326;2022-09-09T10:36:19;1.20;;;0.63;;
7843;SDS011;3967;48.702;9.326;2022-09-09T10:41:54;2.87;;;0.63;;
7843;SDS011;3967;48.702;9.326;2022-09-09T10:47:39;1.87;;;0.40;;
7843;SDS011;3967;48.702;9.326;2022-09-09T10:50:28;1.60;;;0.50;;
7843;SDS011;3967;48.702;9.326;2022-09-09T10:54:16;2.17;;;0.37;;
7843;SDS011;3967;48.702;9.326;2022-09-09T10:56:25;2.87;;;0.70;;
7843;SDS011;3967;48.702;9.326;2022-09-09T10:58:56;2.10;;;0.40;;
7843;SDS011;3967;48.702;9.326;2022-09-09T11:01:32;2.97;;;0.53;;
7843;SDS011;3967;48.702;9.326;2022-09-09T11:04:16;2.00;;;0.40;;
7843;SDS011;3967;48.702;9.326;2022-09-09T11:07:01;1.47;;;0.50;;
7843;SDS011;3967;48.702;9.326;2022-09-09T11:09:38;1.80;;;0.57;;
7843;SDS011;3967;48.702;9.326;2022-09-09T11:12:17;3.90;;;0.70;;
7843;SDS011;3967;48.702;9.326;2022-09-09T11:14:48;2.50;;;0.40;;
7843;SDS011;3967;48.702;9.326;2022-09-09T11:17:22;1.30;;;0.40;;
7843;SDS011;3967;48.702;9.326;2022-09-09T11:19:53;4.07;;;0.40;;
7843;SDS011;3967;48.702;9.326;2022-09-09T11:23:22;3.77;;;0.50;;
7843;SDS011;3967;48.702;9.326;2022-09-09T11:25:55;1.53;;;0.50;;
7843;SDS011;3967;48.702;9.326;2022-09-09T11:39:53;2.73;;;0.70;;
7843;SDS011;3967;48.702;9.326;2022-09-09T11:42:27;4.73;;;1.23;;
7843;SDS011;3967;48.702;9.326;2022-09-09T11:44:54;4.20;;;0.60;;
7843;SDS011;3967;48.702;9.326;2022-09-09T11:50:07;3.90;;;0.60;;
7843;SDS011;3967;48.702;9.326;2022-09-09T11:55:24;1.47;;;0.40;;
7843;SDS011;3967;48.702;9.326;2022-09-09T12:00:31;2.93;;;0.40;;
7843;SDS011;3967;48.702;9.326;2022-09-09T12:03:08;4.17;;;1.00;;
7843;SDS011;3967;48.702;9.326;2022-09-09T12:05:58;2.63;;;0.37;;
7843;SDS011;3967;48.702;9.326;2022-09-09T12:08:27;0.57;;;0.20;;
7843;SDS011;3967;48.702;9.326;2022-09-09T12:10:56;1.07;;;0.40;;
7843;SDS011;3967;48.702;9.326;2022-09-09T12:13:26;1.03;;;0.50;;
7843;SDS011;3967;48.702;9.326;2022-09-09T12:15:57;0.30;;;0.27;;
7843;SDS011;3967;48.702;9.326;2022-09-09T12:18:26;7.60;;;0.40;;
7843;SDS011;3967;48.702;9.326;2022-09-09T12:21:06;0.20;;;0.10;;
7843;SDS011;3967;48.702;9.326;2022-09-09T12:23:51;1.03;;;0.13;;
7843;SDS011;3967;48.702;9.326;2022-09-09T12:31:37;0.10;;;0.10;;
7843;SDS011;3967;48.702;9.326;2022-09-09T12:36:58;0.90;;;0.27;;
7843;SDS011;3967;48.702;9.326;2022-09-09T12:39:29;3.57;;;0.20;;
7843;SDS011;3967;48.702;9.326;2022-09-09T12:41:58;2.83;;;0.30;;
7843;SDS011;3967;48.702;9.326;2022-09-09T12:44:25;0.70;;;0.10;;
7843;SDS011;3967;48.702;9.326;2022-09-09T12:46:56;1.10;;;0.20;;
7843;SDS011;3967;48.702;9.326;2022-09-09T12:51:52;1.23;;;0.20;;
7843;SDS011;3967;48.702;9.326;2022-09-09T12:54:20;2.63;;;0.33;;
7843;SDS011;3967;48.702;9.326;2022-09-09T12:56:47;1.67;;;0.30;;
7843;SDS011;3967;48.702;9.326;2022-09-09T12:59:23;3.27;;;0.47;;
7843;SDS011;3967;48.702;9.326;2022-09-09T13:01:57;2.97;;;0.40;;
7843;SDS011;3967;48.702;9.326;2022-09-09T13:04:25;1.67;;;0.40;;
7843;SDS011;3967;48.702;9.326;2022-09-09T13:06:52;1.10;;;0.30;;
7843;SDS011;3967;48.702;9.326;2022-09-09T13:09:19;1.43;;;0.70;;
7843;SDS011;3967;48.702;9.326;2022-09-09T13:11:47;0.57;;;0.20;;
7843;SDS011;3967;48.702;9.326;2022-09-09T13:14:26;4.77;;;0.40;;
7843;SDS011;3967;48.702;9.326;2022-09-09T13:16:59;0.97;;;0.30;;
7843;SDS011;3967;48.702;9.326;2022-09-09T13:19:30;1.93;;;0.37;;
7843;SDS011;3967;48.702;9.326;2022-09-09T13:22:14;3.53;;;0.33;;
7843;SDS011;3967;48.702;9.326;2022-09-09T13:24:47;1.70;;;0.50;;
7843;SDS011;3967;48.702;9.326;2022-09-09T13:29:56;2.57;;;0.50;;
7843;SDS011;3967;48.702;9.326;2022-09-09T13:32:24;1.70;;;0.40;;
7843;SDS011;3967;48.702;9.326;2022-09-09T13:34:59;0.77;;;0.23;;
7843;SDS011;3967;48.702;9.326;2022-09-09T13:40:00;1.53;;;0.33;;
7843;SDS011;3967;48.702;9.326;2022-09-09T13:42:29;1.10;;;0.30;;
7843;SDS011;3967;48.702;9.326;2022-09-09T13:45:00;3.40;;;0.60;;
7843;SDS011;3967;48.702;9.326;2022-09-09T13:47:31;0.90;;;0.30;;
7843;SDS011;3967;48.702;9.326;2022-09-09T13:52:52;0.60;;;0.20;;
7843;SDS011;3967;48.702;9.326;2022-09-09T13:55:21;3.93;;;0.30;;
7843;SDS011;3967;48.702;9.326;2022-09-09T14:00:23;1.63;;;0.40;;
7843;SDS011;3967;48.702;9.326;2022-09-09T14:02:50;2.03;;;0.33;;
7843;SDS011;3967;48.702;9.326;2022-09-09T14:05:17;0.60;;;0.30;;
7843;SDS011;3967;48.702;9.326;2022-09-09T14:07:45;1.60;;;0.40;;
7843;SDS011;3967;48.702;9.326;2022-09-09T14:10:18;2.67;;;0.30;;
7843;SDS011;3967;48.702;9.326;2022-09-09T14:12:44;0.37;;;0.20;;
7843;SDS011;3967;48.702;9.326;2022-09-09T14:15:12;1.07;;;0.40;;
7843;SDS011;3967;48.702;9.326;2022-09-09T14:17:40;2.37;;;0.30;;
7843;SDS011;3967;48.702;9.326;2022-09-09T14:20:07;1.47;;;0.30;;
7843;SDS011;3967;48.702;9.326;2022-09-09T14:22:35;1.50;;;0.30;;
7843;SDS011;3967;48.702;9.326;2022-09-09T14:25:02;2.53;;;0.40;;
7843;SDS011;3967;48.702;9.326;2022-09-09T14:27:30;1.10;;;0.27;;
7843;SDS011;3967;48.702;9.326;2022-09-09T14:29:56;2.37;;;0.40;;
7843;SDS011;3967;48.702;9.326;2022-09-09T14:32:26;1.93;;;0.30;;
7843;SDS011;3967;48.702;9.326;2022-09-09T14:34:52;1.80;;;0.30;;
7843;SDS011;3967;48.702;9.326;2022-09-09T14:37:19;2.30;;;0.30;;
7843;SDS011;3967;48.702;9.326;2022-09-09T14:39:46;1.20;;;0.30;;
7843;SDS011;3967;48.702;9.326;2022-09-09T14:42:13;1.10;;;0.40;;
7843;SDS011;3967;48.702;9.326;2022-09-09T14:44:40;1.00;;;0.47;;
7843;SDS011;3967;48.702;9.326;2022-09-09T14:47:07;3.03;;;0.43;;
7843;SDS011;3967;48.702;9.326;2022-09-09T14:49:35;2.10;;;0.30;;
7843;SDS011;3967;48.702;9.326;2022-09-09T14:52:02;0.53;;;0.20;;
7843;SDS011;3967;48.702;9.326;2022-09-09T14:54:29;1.07;;;0.50;;
7843;SDS011;3967;48.702;9.326;2022-09-09T14:56:58;1.97;;;0.30;;
7843;SDS011;3967;48.702;9.326;2022-09-09T14:59:25;2.47;;;0.30;;
7843;SDS011;3967;48.702;9.326;2022-09-09T15:01:52;1.83;;;0.30;;
7843;SDS011;3967;48.702;9.326;2022-09-09T15:04:20;0.40;;;0.20;;
7843;SDS011;3967;48.702;9.326;2022-09-09T15:06:46;1.13;;;0.30;;
7843;SDS011;3967;48.702;9.326;2022-09-09T15:09:14;1.53;;;0.27;;
7843;SDS011;3967;48.702;9.326;2022-09-09T15:11:41;1.60;;;0.40;;
7843;SDS011;3967;48.702;9.326;2022-09-09T15:14:09;1.43;;;0.20;;
7843;SDS011;3967;48.702;9.326;2022-09-09T15:16:38;1.63;;;0.30;;
7843;SDS011;3967;48.702;9.326;2022-09-09T15:19:05;1.23;;;0.30;;
7843;SDS011;3967;48.702;9.326;2022-09-09T15:21:34;4.27;;;0.50;;
7843;SDS011;3967;48.702;9.326;2022-09-09T15:24:02;0.60;;;0.23;;
7843;SDS011;3967;48.702;9.326;2022-09-09T15:26:30;1.33;;;0.20;;
7843;SDS011;3967;48.702;9.326;2022-09-09T15:28:57;1.60;;;0.30;;
7843;SDS011;3967;48.702;9.326;2022-09-09T15:31:28;0.47;;;0.20;;
7843;SDS011;3967;48.702;9.326;2022-09-09T15:33:57;1.57;;;0.27;;
7843;SDS011;3967;48.702;9.326;2022-09-09T15:39:00;0.97;;;0.20;;
7843;SDS011;3967;48.702;9.326;2022-09-09T15:41:27;2.53;;;0.37;;
7843;SDS011;3967;48.702;9.326;2022-09-09T15:43:55;5.20;;;0.60;;
7843;SDS011;3967;48.702;9.326;2022-09-09T15:46:24;0.80;;;0.20;;
7843;SDS011;3967;48.702;9.326;2022-09-09T15:48:57;1.53;;;0.30;;
7843;SDS011;3967;48.702;9.326;2022-09-09T15:51:45;0.73;;;0.30;;
7843;SDS011;3967;48.702;9.326;2022-09-09T15:54:20;3.53;;;0.47;;
7843;SDS011;3967;48.702;9.326;2022-09-09T15:56:56;2.73;;;0.70;;
7843;SDS011;3967;48.702;9.326;2022-09-09T15:59:25;3.30;;;0.80;;
7843;SDS011;3967;48.702;9.326;2022-09-09T16:01:57;1.93;;;0.77;;
7843;SDS011;3967;48.702;9.326;2022-09-09T16:04:26;1.23;;;0.30;;
7843;SDS011;3967;48.702;9.326;2022-09-09T16:06:56;1.07;;;0.40;;
7843;SDS011;3967;48.702;9.326;2022-09-09T16:09:27;1.17;;;0.30;;
7843;SDS011;3967;48.702;9.326;2022-09-09T16:12:00;1.50;;;0.40;;
7843;SDS011;3967;48.702;9.326;2022-09-09T16:14:29;2.77;;;0.47;;
7843;SDS011;3967;48.702;9.326;2022-09-09T16:17:00;1.20;;;0.30;;
7843;SDS011;3967;48.702;9.326;2022-09-09T16:19:27;0.80;;;0.40;;
7843;SDS011;3967;48.702;9.326;2022-09-09T16:21:53;1.00;;;0.30;;
7843;SDS011;3967;48.702;9.326;2022-09-09T16:24:20;2.30;;;0.37;;
7843;SDS011;3967;48.702;9.326;2022-09-09T16:26:48;1.50;;;0.20;;
7843;SDS011;3967;48.702;9.326;2022-09-09T16:29:16;2.43;;;0.33;;
7843;SDS011;3967;48.702;9.326;2022-09-09T16:31:47;1.20;;;0.50;;
7843;SDS011;3967;48.702;9.326;2022-09-09T16:34:15;0.43;;;0.20;;
7843;SDS011;3967;48.702;9.326;2022-09-09T16:36:43;1.87;;;0.40;;
7843;SDS011;3967;48.702;9.326;2022-09-09T16:39:12;0.87;;;0.27;;
7843;SDS011;3967;48.702;9.326;2022-09-09T16:41:40;1.83;;;1.50;;
7843;SDS011;3967;48.702;9.326;2022-09-09T16:44:10;3.07;;;0.73;;
7843;SDS011;3967;48.702;9.326;2022-09-09T16:46:39;0.53;;;0.40;;
7843;SDS011;3967;48.702;9.326;2022-09-09T16:49:09;0.90;;;0.80;;
7843;SDS011;3967;48.702;9.326;2022-09-09T16:51:42;1.50;;;0.50;;
7843;SDS011;3967;48.702;9.326;2022-09-09T16:54:12;1.40;;;0.40;;
7843;SDS011;3967;48.702;9.326;2022-09-09T16:56:41;1.33;;;0.60;;
7843;SDS011;3967;48.702;9.326;2022-09-09T16:59:11;1.33;;;0.60;;
7843;SDS011;3967;48.702;9.326;2022-09-09T17:01:40;2.27;;;0.60;;
7843;SDS011;3967;48.702;9.326;2022-09-09T17:04:11;3.97;;;0.93;;
7843;SDS011;3967;48.702;9.326;2022-09-09T17:06:41;1.27;;;0.47;;
7843;SDS011;3967;48.702;9.326;2022-09-09T17:09:11;3.47;;;0.97;;
7843;SDS011;3967;48.702;9.326;2022-09-09T17:11:39;1.00;;;0.40;;
7843;SDS011;3967;48.702;9.326;2022-09-09T17:14:07;1.13;;;0.30;;
7843;SDS011;3967;48.702;9.326;2022-09-09T17:16:36;2.40;;;0.40;;
7843;SDS011;3967;48.702;9.326;2022-09-09T17:19:05;1.73;;;0.30;;
7843;SDS011;3967;48.702;9.326;2022-09-09T17:21:34;1.93;;;0.40;;
7843;SDS011;3967;48.702;9.326;2022-09-09T17:24:19;0.97;;;0.87;;
7843;SDS011;3967;48.702;9.326;2022-09-09T17:26:47;2.83;;;1.63;;
7843;SDS011;3967;48.702;9.326;2022-09-09T17:29:14;1.13;;;0.77;;
7843;SDS011;3967;48.702;9.326;2022-09-09T17:31:42;0.67;;;0.20;;
7843;SDS011;3967;48.702;9.326;2022-09-09T17:34:09;0.30;;;0.20;;
7843;SDS011;3967;48.702;9.326;2022-09-09T17:36:36;1.10;;;0.30;;
7843;SDS011;3967;48.702;9.326;2022-09-09T17:39:04;1.23;;;0.40;;
7843;SDS011;3967;48.702;9.326;2022-09-09T17:41:33;0.83;;;0.10;;
7843;SDS011;3967;48.702;9.326;2022-09-09T17:44:01;0.93;;;0.20;;
7843;SDS011;3967;48.702;9.326;2022-09-09T17:48:59;0.30;;;0.20;;
7843;SDS011;3967;48.702;9.326;2022-09-09T17:51:28;0.60;;;0.20;;
7843;SDS011;3967;48.702;9.326;2022-09-09T17:53:58;0.60;;;0.20;;
7843;SDS011;3967;48.702;9.326;2022-09-09T17:56:31;0.83;;;0.40;;
7843;SDS011;3967;48.702;9.326;2022-09-09T17:58:58;1.27;;;0.40;;
7843;SDS011;3967;48.702;9.326;2022-09-09T18:01:27;1.33;;;0.23;;
7843;SDS011;3967;48.702;9.326;2022-09-09T18:03:57;0.37;;;0.37;;